createdAt,value
2023-03-03T00:01:10.582Z,13.33
2023-03-03T00:03:38.056Z,14.13
2023-03-03T00:06:06.049Z,14.67
2023-03-03T00:08:33.482Z,13.40
2023-03-03T00:11:03.131Z,13.43
2023-03-03T00:13:32.817Z,12.13
2023-03-03T00:16:11.727Z,11.67
2023-03-03T00:18:41.762Z,13.37
2023-03-03T00:21:16.479Z,14.47
2023-03-03T00:23:43.845Z,16.37
2023-03-03T00:26:17.423Z,15.87
2023-03-03T00:28:47.812Z,15.17
2023-03-03T00:31:17.770Z,14.87
2023-03-03T00:33:47.994Z,17.93
2023-03-03T00:36:31.705Z,16.43
2023-03-03T00:39:07.884Z,13.73
2023-03-03T00:41:37.432Z,14.00
2023-03-03T00:44:29.001Z,14.93
2023-03-03T00:46:57.341Z,13.47
2023-03-03T00:49:26.903Z,13.60
2023-03-03T00:51:54.587Z,13.27
2023-03-03T00:54:22.009Z,14.20
2023-03-03T00:56:49.420Z,15.83
2023-03-03T00:59:18.350Z,14.53
2023-03-03T01:01:45.785Z,13.00
2023-03-03T01:04:13.544Z,13.87
2023-03-03T01:06:40.867Z,14.03
2023-03-03T01:09:08.208Z,15.43
2023-03-03T01:11:35.609Z,14.57
2023-03-03T01:14:03.034Z,13.77
2023-03-03T01:16:32.666Z,15.73
2023-03-03T01:19:00.045Z,14.80
2023-03-03T01:21:27.591Z,17.87
2023-03-03T01:23:55.056Z,14.53
2023-03-03T01:26:22.467Z,13.53
2023-03-03T01:28:49.859Z,14.10
2023-03-03T01:31:18.006Z,13.43
2023-03-03T01:33:46.846Z,14.73
2023-03-03T01:36:14.214Z,13.60
2023-03-03T01:38:43.196Z,14.37
2023-03-03T01:41:10.623Z,13.27
2023-03-03T01:43:44.256Z,13.43
2023-03-03T01:46:29.464Z,14.47
2023-03-03T01:49:02.931Z,14.70
2023-03-03T01:51:31.783Z,14.70
2023-03-03T01:54:00.982Z,15.47
2023-03-03T01:56:28.727Z,17.63
2023-03-03T01:58:58.896Z,14.00
2023-03-03T02:01:27.872Z,14.00
2023-03-03T02:03:55.592Z,13.33
2023-03-03T02:06:26.681Z,14.10
2023-03-03T02:08:55.422Z,12.97
2023-03-03T02:11:24.501Z,13.63
2023-03-03T02:13:51.869Z,12.80
2023-03-03T02:16:19.313Z,12.40
2023-03-03T02:18:46.788Z,11.93
2023-03-03T02:21:16.243Z,12.20
2023-03-03T02:23:51.419Z,11.53
2023-03-03T02:26:22.688Z,14.23
2023-03-03T02:28:53.385Z,13.27
2023-03-03T02:31:22.557Z,12.80
2023-03-03T02:33:50.781Z,13.20
2023-03-03T02:36:19.640Z,12.83
2023-03-03T02:38:49.529Z,12.63
2023-03-03T02:41:19.214Z,12.57
2023-03-03T02:47:16.209Z,12.30
2023-03-03T02:49:45.124Z,12.37
2023-03-03T02:52:14.738Z,12.57
2023-03-03T02:54:45.718Z,11.93
2023-03-03T02:57:13.246Z,13.30
2023-03-03T02:59:40.588Z,12.43
2023-03-03T03:02:12.402Z,13.07
2023-03-03T03:04:41.112Z,10.37
2023-03-03T03:07:11.715Z,11.10
2023-03-03T03:09:39.276Z,11.87
2023-03-03T03:12:06.859Z,11.23
2023-03-03T03:14:35.708Z,12.77
2023-03-03T03:17:03.150Z,12.60
2023-03-03T03:19:30.510Z,12.40
2023-03-03T03:22:02.739Z,8.17
2023-03-03T03:24:32.067Z,10.67
2023-03-03T03:27:03.934Z,9.87
2023-03-03T03:29:31.373Z,11.33
2023-03-03T03:31:58.965Z,11.30
2023-03-03T03:34:26.727Z,12.37
2023-03-03T03:36:55.179Z,12.60
2023-03-03T03:39:25.833Z,12.77
2023-03-03T03:41:54.480Z,13.70
2023-03-03T03:44:22.089Z,13.67
2023-03-03T03:46:49.509Z,11.93
2023-03-03T03:49:17.305Z,13.77
2023-03-03T03:51:45.847Z,12.77
2023-03-03T03:54:16.685Z,12.80
2023-03-03T03:56:45.696Z,12.90
2023-03-03T03:59:13.114Z,12.43
2023-03-03T04:01:40.540Z,12.80
2023-03-03T04:04:07.953Z,12.10
2023-03-03T04:06:35.942Z,12.50
2023-03-03T04:09:04.697Z,12.07
2023-03-03T04:11:32.683Z,14.00
2023-03-03T04:14:01.486Z,11.50
2023-03-03T04:16:28.963Z,13.63
2023-03-03T04:18:56.593Z,14.17
2023-03-03T04:21:26.139Z,13.57
2023-03-03T04:23:55.910Z,14.00
2023-03-03T04:26:23.484Z,13.97
2023-03-03T04:28:50.873Z,12.87
2023-03-03T04:31:20.518Z,10.63
2023-03-03T04:33:49.021Z,12.53
2023-03-03T04:36:17.287Z,12.37
2023-03-03T04:38:44.682Z,12.47
2023-03-03T04:41:12.352Z,12.33
2023-03-03T04:43:40.218Z,12.37
2023-03-03T04:46:07.810Z,12.23
2023-03-03T04:48:38.417Z,11.80
2023-03-03T04:51:06.101Z,12.60
2023-03-03T04:53:36.588Z,12.60
2023-03-03T04:56:05.452Z,11.60
2023-03-03T04:58:33.028Z,12.07
2023-03-03T05:01:00.440Z,11.20
2023-03-03T05:03:29.985Z,11.57
2023-03-03T05:05:58.784Z,11.37
2023-03-03T05:08:26.155Z,13.37
2023-03-03T05:10:54.178Z,11.77
2023-03-03T05:13:21.532Z,11.90
2023-03-03T05:15:52.552Z,12.37
2023-03-03T05:18:20.031Z,14.40
2023-03-03T05:20:47.412Z,11.30
2023-03-03T05:23:16.081Z,13.77
2023-03-03T05:25:43.647Z,13.47
2023-03-03T05:28:11.949Z,12.70
2023-03-03T05:30:39.347Z,11.87
2023-03-03T05:33:07.206Z,12.50
2023-03-03T05:35:34.582Z,12.37
2023-03-03T05:38:04.347Z,11.23
2023-03-03T05:40:34.128Z,10.20
2023-03-03T05:43:01.670Z,10.23
2023-03-03T05:45:29.063Z,12.10
2023-03-03T05:47:56.454Z,12.37
2023-03-03T05:50:24.289Z,11.27
2023-03-03T05:52:52.149Z,15.33
2023-03-03T05:55:19.982Z,12.73
2023-03-03T05:57:48.698Z,19.53
2023-03-03T06:00:16.752Z,11.83
2023-03-03T06:02:44.642Z,12.20
2023-03-03T06:05:13.240Z,13.17
2023-03-03T06:07:40.908Z,11.53
2023-03-03T06:10:08.741Z,11.63
2023-03-03T06:12:39.238Z,12.13
2023-03-03T06:15:08.987Z,12.17
2023-03-03T06:17:36.574Z,10.67
2023-03-03T06:20:04.274Z,11.63
2023-03-03T06:22:31.723Z,12.67
2023-03-03T06:24:59.345Z,10.80
2023-03-03T06:27:26.720Z,12.33
2023-03-03T06:29:54.096Z,12.90
2023-03-03T06:32:22.918Z,11.23
2023-03-03T06:34:50.334Z,13.23
2023-03-03T06:37:17.749Z,11.87
2023-03-03T06:39:45.101Z,11.63
2023-03-03T06:42:12.467Z,12.07
2023-03-03T06:44:39.977Z,10.07
2023-03-03T06:47:07.536Z,10.23
2023-03-03T06:49:36.337Z,12.60
2023-03-03T06:52:10.993Z,11.90
2023-03-03T06:54:38.416Z,10.97
2023-03-03T06:57:11.350Z,11.00
2023-03-03T06:59:38.708Z,12.30
2023-03-03T07:02:13.805Z,11.83
2023-03-03T07:04:42.583Z,13.33
2023-03-03T07:07:14.634Z,12.50
2023-03-03T07:09:42.002Z,11.17
2023-03-03T07:12:12.104Z,11.97
2023-03-03T07:14:43.045Z,12.07
2023-03-03T07:17:13.166Z,11.10
2023-03-03T07:19:41.135Z,11.60
2023-03-03T07:22:15.885Z,12.40
2023-03-03T07:24:44.169Z,11.53
2023-03-03T07:27:13.324Z,11.47
2023-03-03T07:29:42.040Z,11.70
2023-03-03T07:32:17.495Z,11.93
2023-03-03T07:34:46.132Z,12.00
2023-03-03T07:37:18.560Z,11.27
2023-03-03T07:39:46.624Z,12.50
2023-03-03T07:42:21.591Z,12.93
2023-03-03T07:44:55.879Z,13.40
2023-03-03T07:47:24.895Z,11.60
2023-03-03T07:49:53.103Z,11.83
2023-03-03T07:52:32.577Z,12.27
2023-03-03T07:55:01.519Z,12.63
2023-03-03T07:57:31.471Z,11.07
2023-03-03T08:00:02.138Z,10.33
2023-03-03T08:02:40.899Z,12.23
2023-03-03T08:05:38.889Z,12.47
2023-03-03T08:08:17.784Z,10.00
2023-03-03T08:10:47.721Z,11.63
2023-03-03T08:13:18.459Z,12.80
2023-03-03T08:15:46.567Z,11.27
2023-03-03T08:18:23.114Z,12.00
2023-03-03T08:20:51.624Z,12.40
2023-03-03T08:23:20.828Z,11.70
2023-03-03T08:25:49.541Z,11.70
2023-03-03T08:28:16.924Z,12.60
2023-03-03T08:30:46.635Z,9.07
2023-03-03T08:33:14.242Z,8.50
2023-03-03T08:35:42.204Z,12.27
2023-03-03T08:38:09.926Z,11.97
2023-03-03T08:40:38.935Z,12.03
2023-03-03T08:43:06.405Z,9.97
2023-03-03T08:45:34.162Z,11.50
2023-03-03T08:48:02.443Z,11.73
2023-03-03T08:50:30.962Z,11.47
2023-03-03T08:52:58.714Z,11.43
2023-03-03T08:55:26.209Z,12.40
2023-03-03T08:57:54.932Z,12.03
2023-03-03T09:00:22.624Z,11.77
2023-03-03T09:02:50.417Z,12.27
2023-03-03T09:05:18.525Z,11.77
2023-03-03T09:07:47.848Z,10.37
2023-03-03T09:10:17.807Z,9.73
2023-03-03T09:12:48.450Z,8.97
2023-03-03T09:15:20.960Z,10.93
2023-03-03T09:17:48.730Z,9.73
2023-03-03T09:20:28.655Z,9.90
2023-03-03T09:22:56.195Z,6.13
2023-03-03T09:25:26.811Z,9.57
2023-03-03T09:27:55.281Z,10.07
2023-03-03T09:30:37.442Z,10.00
2023-03-03T09:33:20.210Z,9.03
2023-03-03T09:35:48.641Z,9.00
2023-03-03T09:38:24.399Z,9.50
2023-03-03T09:40:55.461Z,8.40
2023-03-03T09:43:27.820Z,9.17
2023-03-03T09:46:00.296Z,6.50
2023-03-03T09:48:34.416Z,7.93
2023-03-03T09:51:09.334Z,8.87
2023-03-03T09:53:43.146Z,9.20
2023-03-03T09:56:17.600Z,8.50
2023-03-03T09:58:50.691Z,8.77
2023-03-03T10:01:34.114Z,8.80
2023-03-03T10:04:20.968Z,8.33
2023-03-03T10:06:51.452Z,8.77
2023-03-03T10:09:32.355Z,8.33
2023-03-03T10:12:05.420Z,7.73
2023-03-03T10:14:47.385Z,6.90
2023-03-03T10:17:26.751Z,7.33
2023-03-03T10:20:02.827Z,7.67
2023-03-03T10:22:34.742Z,7.73
2023-03-03T10:25:05.489Z,8.07
2023-03-03T10:27:39.368Z,7.43
2023-03-03T10:30:09.627Z,7.07
2023-03-03T10:32:42.854Z,6.17
2023-03-03T10:35:19.948Z,5.83
2023-03-03T10:37:53.203Z,5.83
2023-03-03T10:40:24.321Z,6.37
2023-03-03T10:42:59.071Z,6.17
2023-03-03T10:45:35.624Z,6.70
2023-03-03T10:48:10.920Z,5.63
2023-03-03T10:50:46.249Z,6.30
2023-03-03T10:53:20.384Z,5.50
2023-03-03T10:55:53.377Z,4.87
2023-03-03T10:58:30.762Z,5.17
2023-03-03T11:01:05.077Z,5.67
2023-03-03T11:03:49.832Z,12.37
2023-03-03T11:06:20.485Z,7.17
2023-03-03T11:08:50.681Z,6.50
2023-03-03T11:11:19.128Z,5.70
2023-03-03T11:13:49.155Z,6.07
2023-03-03T11:16:22.800Z,6.90
2023-03-03T11:19:02.377Z,1.87
2023-03-03T11:21:34.098Z,5.73
2023-03-03T11:24:09.127Z,4.47
2023-03-03T11:26:45.199Z,4.50
2023-03-03T11:29:24.961Z,4.87
2023-03-03T11:31:56.681Z,3.17
2023-03-03T11:34:32.270Z,5.00
2023-03-03T11:37:05.240Z,4.20
2023-03-03T11:39:34.030Z,5.77
2023-03-03T11:42:05.364Z,5.53
2023-03-03T11:44:34.549Z,5.37
2023-03-03T11:47:04.791Z,4.70
2023-03-03T11:49:37.738Z,5.03
2023-03-03T11:52:14.510Z,5.43
2023-03-03T11:54:47.294Z,4.23
2023-03-03T11:57:19.201Z,3.67
2023-03-03T11:59:50.922Z,5.10
2023-03-03T12:02:36.102Z,4.63
2023-03-03T12:05:08.017Z,5.03
2023-03-03T12:07:41.468Z,4.80
2023-03-03T12:10:24.863Z,4.53
2023-03-03T12:12:57.444Z,4.20
2023-03-03T12:15:28.756Z,4.20
2023-03-03T12:18:06.028Z,4.60
2023-03-03T12:20:40.411Z,3.80
2023-03-03T12:23:17.872Z,3.50
2023-03-03T12:25:47.105Z,4.73
2023-03-03T12:28:18.606Z,4.67
2023-03-03T12:31:02.077Z,4.17
2023-03-03T12:33:33.460Z,2.90
2023-03-03T12:36:11.198Z,2.80
2023-03-03T12:38:42.640Z,3.30
2023-03-03T12:41:15.150Z,3.90
2023-03-03T12:43:48.429Z,3.83
2023-03-03T12:46:20.748Z,4.07
2023-03-03T12:48:48.962Z,3.60
2023-03-03T12:51:22.543Z,4.53
2023-03-03T12:53:57.832Z,4.33
2023-03-03T12:56:27.335Z,2.43
2023-03-03T12:59:01.113Z,4.27
2023-03-03T13:01:34.917Z,4.80
2023-03-03T13:04:06.115Z,5.20
2023-03-03T13:06:37.709Z,3.03
2023-03-03T13:09:16.080Z,4.43
2023-03-03T13:11:46.972Z,2.60
2023-03-03T13:14:18.615Z,2.87
2023-03-03T13:16:49.737Z,4.53
2023-03-03T13:19:19.137Z,4.33
2023-03-03T13:21:50.182Z,4.17
2023-03-03T13:24:20.491Z,3.23
2023-03-03T13:26:51.348Z,4.40
2023-03-03T13:29:22.146Z,4.90
2023-03-03T13:31:52.438Z,4.13
2023-03-03T13:34:24.731Z,4.03
2023-03-03T13:36:57.281Z,3.83
2023-03-03T13:39:28.257Z,4.27
2023-03-03T13:41:58.336Z,3.43
2023-03-03T13:44:27.095Z,3.50
2023-03-03T13:46:59.568Z,2.97
2023-03-03T13:49:30.977Z,4.63
2023-03-03T13:52:03.185Z,3.20
2023-03-03T13:54:43.413Z,4.23
2023-03-03T13:57:19.741Z,4.03
2023-03-03T13:59:52.389Z,3.77
2023-03-03T14:02:38.741Z,4.53
2023-03-03T14:05:12.763Z,2.67
2023-03-03T14:07:45.914Z,3.70
2023-03-03T14:10:19.290Z,3.63
2023-03-03T14:12:52.292Z,1.57
2023-03-03T14:15:23.831Z,3.97
2023-03-03T14:17:57.768Z,5.50
2023-03-03T14:20:27.965Z,4.20
2023-03-03T14:22:58.004Z,5.13
2023-03-03T14:25:25.438Z,4.97
2023-03-03T14:28:01.579Z,4.50
2023-03-03T14:30:30.244Z,4.63
2023-03-03T14:33:02.019Z,3.87
2023-03-03T14:35:31.324Z,2.63
2023-03-03T14:38:04.451Z,2.40
2023-03-03T14:40:33.018Z,3.30
2023-03-03T14:43:01.884Z,3.27
2023-03-03T14:45:36.111Z,3.20
2023-03-03T14:48:11.309Z,3.20
2023-03-03T14:50:39.829Z,2.77
2023-03-03T14:53:14.015Z,3.30
2023-03-03T14:55:42.344Z,2.10
2023-03-03T14:58:25.130Z,3.60
2023-03-03T15:00:53.044Z,3.10
2023-03-03T15:03:22.864Z,2.20
2023-03-03T15:05:51.032Z,2.37
2023-03-03T15:08:25.642Z,1.87
2023-03-03T15:10:53.053Z,2.33
2023-03-03T15:13:29.294Z,3.50
2023-03-03T15:16:03.450Z,3.97
2023-03-03T15:18:33.379Z,2.53
2023-03-03T15:21:04.317Z,3.20
2023-03-03T15:23:45.917Z,3.07
2023-03-03T15:26:15.959Z,2.70
2023-03-03T15:28:49.735Z,3.57
2023-03-03T15:31:23.211Z,2.97
2023-03-03T15:33:58.898Z,3.63
2023-03-03T15:36:32.235Z,2.80
2023-03-03T15:39:04.724Z,3.43
2023-03-03T15:41:38.651Z,3.50
2023-03-03T15:44:15.400Z,3.80
2023-03-03T15:46:52.532Z,3.50
2023-03-03T15:49:28.934Z,4.43
2023-03-03T15:52:05.568Z,3.30
2023-03-03T15:54:40.879Z,4.03
2023-03-03T15:57:16.485Z,5.00
2023-03-03T15:59:51.022Z,4.37
2023-03-03T16:02:20.182Z,4.57
2023-03-03T16:05:00.322Z,6.00
2023-03-03T16:07:31.832Z,4.93
2023-03-03T16:10:04.571Z,6.17
2023-03-03T16:12:34.568Z,4.87
2023-03-03T16:15:16.094Z,5.90
2023-03-03T16:17:45.377Z,6.67
2023-03-03T16:20:20.645Z,4.37
2023-03-03T16:22:57.065Z,7.30
2023-03-03T16:25:34.955Z,7.47
2023-03-03T16:28:05.536Z,7.40
2023-03-03T16:30:34.106Z,6.37
2023-03-03T16:33:09.682Z,8.07
2023-03-03T16:35:39.806Z,6.87
2023-03-03T16:38:10.338Z,8.20
2023-03-03T16:40:44.015Z,6.00
2023-03-03T16:43:18.536Z,9.37
2023-03-03T16:45:46.153Z,9.53
2023-03-03T16:48:22.000Z,8.90
2023-03-03T16:50:55.486Z,9.00
2023-03-03T16:53:27.440Z,9.70
2023-03-03T16:56:00.635Z,8.87
2023-03-03T16:58:32.818Z,9.37
2023-03-03T17:01:05.256Z,9.27
2023-03-03T17:03:41.324Z,12.67
2023-03-03T17:06:14.422Z,20.27
2023-03-03T17:08:49.235Z,18.00
2023-03-03T17:11:23.500Z,6.73
2023-03-03T17:14:06.817Z,11.50
2023-03-03T17:16:51.583Z,11.40
2023-03-03T17:19:24.238Z,11.97
2023-03-03T17:21:58.312Z,11.83
2023-03-03T17:24:29.497Z,6.43
2023-03-03T17:27:04.104Z,10.23
2023-03-03T17:29:42.343Z,11.63
2023-03-03T17:32:16.921Z,13.20
2023-03-03T17:34:48.970Z,11.97
2023-03-03T17:37:21.882Z,12.23
2023-03-03T17:39:56.581Z,10.97
2023-03-03T17:42:31.541Z,10.90
2023-03-03T17:45:03.234Z,11.43
2023-03-03T17:47:39.681Z,9.90
2023-03-03T17:50:14.054Z,10.67
2023-03-03T17:52:50.979Z,10.17
2023-03-03T17:55:23.767Z,6.37
2023-03-03T17:57:59.807Z,6.73
2023-03-03T18:00:34.091Z,9.17
2023-03-03T18:03:13.380Z,10.13
2023-03-03T18:05:47.409Z,9.13
2023-03-03T18:08:22.363Z,9.47
2023-03-03T18:11:01.049Z,13.47
2023-03-03T18:13:43.397Z,14.10
2023-03-03T18:16:20.035Z,15.63
2023-03-03T18:19:00.546Z,12.73
2023-03-03T18:21:29.013Z,5.80
2023-03-03T18:24:11.276Z,19.40
2023-03-03T18:26:39.456Z,13.97
2023-03-03T18:29:10.815Z,10.83
2023-03-03T18:31:47.304Z,10.23
2023-03-03T18:34:28.465Z,10.43
2023-03-03T18:36:56.641Z,12.23
2023-03-03T18:39:45.577Z,11.50
2023-03-03T18:42:31.914Z,13.37
2023-03-03T18:45:10.819Z,12.87
2023-03-03T18:47:56.904Z,10.60
2023-03-03T18:50:31.127Z,11.03
2023-03-03T18:53:28.849Z,12.50
2023-03-03T18:55:57.387Z,10.50
2023-03-03T18:58:32.366Z,11.47
2023-03-03T19:01:03.545Z,9.30
2023-03-03T19:03:33.702Z,10.47
2023-03-03T19:06:02.506Z,9.80
2023-03-03T19:08:30.632Z,12.50
2023-03-03T19:10:59.141Z,12.53
2023-03-03T19:13:43.120Z,14.83
2023-03-03T19:16:11.984Z,12.97
2023-03-03T19:18:59.524Z,13.87
2023-03-03T19:21:28.212Z,14.30
2023-03-03T19:23:59.871Z,13.57
2023-03-03T19:27:00.377Z,11.50
2023-03-03T19:29:45.451Z,11.90
2023-03-03T19:32:21.705Z,11.57
2023-03-03T19:34:52.121Z,12.07
2023-03-03T19:37:28.181Z,11.73
2023-03-03T19:40:01.290Z,11.63
2023-03-03T19:42:34.666Z,10.10
2023-03-03T19:45:09.596Z,10.80
2023-03-03T19:47:41.599Z,10.93
2023-03-03T19:50:18.491Z,13.20
2023-03-03T19:52:50.846Z,11.10
2023-03-03T19:55:24.455Z,10.50
2023-03-03T19:57:58.151Z,10.00
2023-03-03T20:00:29.930Z,9.77
2023-03-03T20:03:04.333Z,9.47
2023-03-03T20:05:35.630Z,10.57
2023-03-03T20:08:05.183Z,9.37
2023-03-03T20:10:38.703Z,10.27
2023-03-03T20:13:12.044Z,11.63
2023-03-03T20:15:42.949Z,10.47
2023-03-03T20:18:22.485Z,7.87
2023-03-03T20:20:57.486Z,10.33
2023-03-03T20:23:28.840Z,10.20
2023-03-03T20:26:00.935Z,11.93
2023-03-03T20:28:47.467Z,12.03
2023-03-03T20:31:17.839Z,11.50
2023-03-03T20:33:50.890Z,10.10
2023-03-03T20:36:22.030Z,10.77
2023-03-03T20:38:55.816Z,10.20
2023-03-03T20:41:27.159Z,9.23
2023-03-03T20:44:00.286Z,11.70
2023-03-03T20:46:31.548Z,10.07
2023-03-03T20:49:12.122Z,10.07
2023-03-03T20:51:42.497Z,10.27
2023-03-03T20:54:14.160Z,5.20
2023-03-03T20:56:44.828Z,11.80
2023-03-03T20:59:17.550Z,4.63
2023-03-03T21:01:49.663Z,10.23
2023-03-03T21:04:23.161Z,10.43
2023-03-03T21:06:50.783Z,11.00
2023-03-03T21:09:26.269Z,9.07
2023-03-03T21:11:53.730Z,12.43
2023-03-03T21:14:22.667Z,12.17
2023-03-03T21:16:50.724Z,11.83
2023-03-03T21:19:26.524Z,2.23
2023-03-03T21:21:54.304Z,12.30
2023-03-03T21:24:21.892Z,12.70
2023-03-03T21:26:50.997Z,8.17
2023-03-03T21:29:29.478Z,12.70
2023-03-03T21:31:58.104Z,10.90
2023-03-03T21:34:31.792Z,11.77
2023-03-03T21:36:59.840Z,6.07
2023-03-03T21:39:29.279Z,12.30
2023-03-03T21:41:58.980Z,9.07
2023-03-03T21:44:30.495Z,11.90
2023-03-03T21:46:58.745Z,11.17
2023-03-03T21:49:26.340Z,13.67
2023-03-03T21:51:55.407Z,12.23
2023-03-03T21:54:22.832Z,9.37
2023-03-03T21:56:50.736Z,11.10
2023-03-03T21:59:18.222Z,10.10
2023-03-03T22:01:45.639Z,13.40
2023-03-03T22:04:13.267Z,11.50
2023-03-03T22:06:41.439Z,9.47
2023-03-03T22:09:10.130Z,11.93
2023-03-03T22:11:38.251Z,13.53
2023-03-03T22:14:05.874Z,14.57
2023-03-03T22:16:33.499Z,11.73
2023-03-03T22:19:02.744Z,13.47
2023-03-03T22:21:30.390Z,12.50
2023-03-03T22:23:58.216Z,9.90
2023-03-03T22:26:26.974Z,14.00
2023-03-03T22:28:54.457Z,12.73
2023-03-03T22:31:22.282Z,13.43
2023-03-03T22:33:50.098Z,12.57
2023-03-03T22:36:18.884Z,13.57
2023-03-03T22:38:46.605Z,13.77
2023-03-03T22:41:14.380Z,13.27
2023-03-03T22:43:43.125Z,13.50
2023-03-03T22:46:11.563Z,12.33
2023-03-03T22:48:39.569Z,13.33
2023-03-03T22:51:07.403Z,12.63
2023-03-03T22:53:34.839Z,14.83
2023-03-03T22:56:02.833Z,14.67
2023-03-03T22:58:30.822Z,9.23
2023-03-03T23:00:59.828Z,14.03
2023-03-03T23:03:27.940Z,11.73
2023-03-03T23:05:55.414Z,13.70
2023-03-03T23:08:23.251Z,11.20
2023-03-03T23:10:50.726Z,11.83
2023-03-03T23:13:18.150Z,9.60
2023-03-03T23:15:45.786Z,12.83
2023-03-03T23:18:14.551Z,13.40
2023-03-03T23:20:45.797Z,10.63
2023-03-03T23:23:13.372Z,13.37
2023-03-03T23:25:41.021Z,8.30
2023-03-03T23:28:08.634Z,11.03
2023-03-03T23:30:36.094Z,13.23
2023-03-03T23:33:03.621Z,8.97
2023-03-03T23:35:32.596Z,13.40
2023-03-03T23:38:00.452Z,11.87
2023-03-03T23:40:28.350Z,13.10
2023-03-03T23:42:55.692Z,11.33
2023-03-03T23:45:23.309Z,11.43
2023-03-03T23:47:50.715Z,11.63
2023-03-03T23:50:18.197Z,10.73
2023-03-03T23:52:47.013Z,8.63
2023-03-03T23:55:14.676Z,11.70
2023-03-03T23:57:42.996Z,4.43
